Time;durP1;ratioP1;P1;durP2;ratioP2;P2;SDS_P1;SDS_P2;PMS_P1;PMS_P2;Temp;Humidity;BMP_temperature;BMP_pressure;BME280_temperature;BME280_humidity;BME280_pressure;Samples;Min_cycle;Max_cycle;Signal;HPM_P1;HPM_P2
2022/01/08 00:01:19;;;;;;;7.90;7.35;;;0.40;99.90;;;;;;5118667;27;20549;-57
2022/01/08 00:03:59;;;;;;;8.40;7.60;;;0.40;99.90;;;;;;5146222;27;20663;-57
2022/01/08 00:06:39;;;;;;;8.50;7.90;;;0.30;99.90;;;;;;5124720;27;20882;-58
2022/01/08 00:09:19;;;;;;;8.60;7.80;;;0.20;99.90;;;;;;5100653;27;20615;-58
2022/01/08 00:11:58;;;;;;;8.52;7.72;;;0.10;99.90;;;;;;5103845;27;21214;-57
2022/01/08 00:14:38;;;;;;;8.82;8.13;;;0.10;99.90;;;;;;5082719;27;21104;-57
2022/01/08 00:17:19;;;;;;;8.15;7.55;;;0.20;99.90;;;;;;5083871;28;20672;-58
2022/01/08 00:19:58;;;;;;;7.70;7.15;;;0.20;99.90;;;;;;5104557;27;20685;-57
2022/01/08 00:22:40;;;;;;;7.80;7.30;;;0.20;99.90;;;;;;5084855;27;20539;-57
2022/01/08 00:25:19;;;;;;;7.78;7.18;;;0.20;99.90;;;;;;5104069;27;20545;-57
2022/01/08 00:27:59;;;;;;;8.50;7.90;;;0.20;99.90;;;;;;5084406;27;20553;-58
2022/01/08 00:30:39;;;;;;;8.98;8.23;;;0.20;99.90;;;;;;5139421;27;20689;-58
2022/01/08 00:33:19;;;;;;;8.55;7.95;;;0.20;99.90;;;;;;5124390;27;20581;-58
2022/01/08 00:35:58;;;;;;;8.18;7.47;;;0.20;99.90;;;;;;5101277;27;20701;-57
2022/01/08 00:38:38;;;;;;;9.27;8.57;;;0.20;99.90;;;;;;5099056;27;20699;-58
2022/01/08 00:41:18;;;;;;;8.93;8.00;;;0.20;99.90;;;;;;5083998;28;20547;-57
2022/01/08 00:43:58;;;;;;;8.05;7.45;;;0.20;99.90;;;;;;5084069;28;20676;-58
2022/01/08 00:46:38;;;;;;;9.95;9.10;;;0.20;99.90;;;;;;5141512;27;20847;-57
2022/01/08 00:49:18;;;;;;;8.85;8.25;;;0.10;99.90;;;;;;5104112;27;20550;-58
2022/01/08 00:51:57;;;;;;;8.77;8.18;;;0.10;99.90;;;;;;5099761;27;20546;-57
2022/01/08 00:54:38;;;;;;;9.40;8.70;;;0.20;99.90;;;;;;5078304;27;21067;-58
2022/01/08 00:57:17;;;;;;;9.32;8.63;;;0.20;99.90;;;;;;5083850;28;20675;-57
2022/01/08 00:59:57;;;;;;;10.88;9.88;;;0.30;99.90;;;;;;5081404;27;20601;-58
2022/01/08 01:02:38;;;;;;;9.68;8.77;;;0.30;99.90;;;;;;5084446;28;20546;-59
2022/01/08 01:05:17;;;;;;;8.32;7.72;;;0.30;99.90;;;;;;5082187;27;20547;-57
2022/01/08 01:07:57;;;;;;;8.77;8.18;;;0.30;99.90;;;;;;5084061;27;20545;-57
2022/01/08 01:10:36;;;;;;;8.20;7.50;;;0.40;99.90;;;;;;5104702;27;20545;-57
2022/01/08 01:13:16;;;;;;;9.60;8.80;;;0.30;99.90;;;;;;5085046;27;20545;-57
2022/01/08 01:15:57;;;;;;;8.65;8.05;;;0.30;99.90;;;;;;5098897;27;20689;-58
2022/01/08 01:18:37;;;;;;;9.38;8.65;;;0.30;99.90;;;;;;5079024;28;20548;-57
2022/01/08 01:21:16;;;;;;;8.30;7.70;;;0.20;99.90;;;;;;5083937;27;20572;-57
2022/01/08 01:23:56;;;;;;;9.30;8.57;;;0.20;99.90;;;;;;5084373;28;20547;-57
2022/01/08 01:26:37;;;;;;;8.20;7.60;;;0.10;99.90;;;;;;5083692;27;20568;-57
2022/01/08 01:29:30;;;;;;;9.48;8.75;;;0.10;99.90;;;;;;5122588;27;21073;-58
2022/01/08 01:41:18;;;;;;;10.73;9.73;;;0.30;99.90;;;;;;5077950;27;20568;-58
2022/01/08 01:47:04;;;;;;;11.43;10.43;;;0.30;99.90;;;;;;5083707;28;20680;-58
2022/01/08 01:49:46;;;;;;;11.82;10.93;;;0.30;99.90;;;;;;5089843;27;20559;-57
2022/01/08 01:52:26;;;;;;;9.07;8.45;;;0.30;99.90;;;;;;5084624;27;20584;-57
2022/01/08 01:55:08;;;;;;;8.38;7.78;;;0.30;99.90;;;;;;5144035;27;20535;-58
2022/01/08 01:57:48;;;;;;;10.13;9.43;;;0.30;99.90;;;;;;5145936;27;20534;-57
2022/01/08 02:00:27;;;;;;;9.27;8.57;;;0.30;99.90;;;;;;5125405;27;20552;-57
2022/01/08 02:03:06;;;;;;;8.45;7.85;;;0.30;99.90;;;;;;5084746;28;20594;-57
2022/01/08 02:05:47;;;;;;;7.93;7.32;;;0.30;99.90;;;;;;5104131;27;20678;-57
2022/01/08 02:08:26;;;;;;;9.70;9.02;;;0.40;99.90;;;;;;5084583;27;20821;-57
2022/01/08 02:11:07;;;;;;;9.57;8.77;;;0.40;99.90;;;;;;5145861;27;20665;-57
2022/01/08 02:13:48;;;;;;;8.50;7.95;;;0.40;99.90;;;;;;5104648;27;20553;-57
2022/01/08 02:16:27;;;;;;;9.40;8.65;;;0.40;99.90;;;;;;5145550;27;20534;-58
2022/01/08 02:19:07;;;;;;;8.45;7.85;;;0.30;99.90;;;;;;5084506;27;20559;-57
2022/01/08 02:21:52;;;;;;;7.57;6.80;;;0.30;99.90;;;;;;5084465;27;20971;-57
2022/01/08 02:24:32;;;;;;;8.43;7.82;;;0.30;99.90;;;;;;5083725;28;21220;-58
2022/01/08 02:27:12;;;;;;;9.05;8.35;;;0.30;99.90;;;;;;5084403;28;20621;-57
2022/01/08 02:29:51;;;;;;;7.47;6.95;;;0.30;99.90;;;;;;5105287;27;20670;-57
2022/01/08 02:32:31;;;;;;;8.40;7.80;;;0.20;99.90;;;;;;5146001;27;20681;-58
2022/01/08 02:35:11;;;;;;;7.43;6.93;;;0.20;99.90;;;;;;5104887;27;20677;-57
2022/01/08 02:37:51;;;;;;;7.60;6.40;;;0.20;99.90;;;;;;5084387;27;20551;-57
2022/01/08 02:40:31;;;;;;;8.13;7.63;;;0.10;99.90;;;;;;5101074;27;20557;-58
2022/01/08 02:43:10;;;;;;;7.72;7.13;;;0.10;99.90;;;;;;5102275;27;20565;-58
2022/01/08 02:45:50;;;;;;;7.72;7.22;;;0.00;99.90;;;;;;5142364;27;20674;-58
2022/01/08 02:48:30;;;;;;;7.10;6.57;;;0.00;99.90;;;;;;5079712;28;20689;-58
2022/01/08 02:51:10;;;;;;;7.57;7.07;;;0.00;99.90;;;;;;5104232;27;20538;-58
2022/01/08 02:53:50;;;;;;;7.30;6.80;;;0.00;99.90;;;;;;5095949;27;20881;-58
2022/01/08 02:56:30;;;;;;;7.80;7.18;;;-0.10;99.90;;;;;;5083489;27;20565;-58
2022/01/08 02:59:10;;;;;;;7.80;7.30;;;-0.30;99.90;;;;;;5104935;27;20677;-58
2022/01/08 03:01:49;;;;;;;8.32;7.63;;;-0.40;99.90;;;;;;5062456;28;20690;-58
2022/01/08 03:04:29;;;;;;;7.13;6.63;;;-0.60;99.90;;;;;;5104320;27;21054;-58
2022/01/08 03:07:09;;;;;;;6.40;6.00;;;-0.70;99.90;;;;;;5083578;27;21267;-57
2022/01/08 03:09:56;;;;;;;7.05;6.55;;;-0.80;99.90;;;;;;5084182;27;20560;-58
2022/01/08 03:12:38;;;;;;;6.13;5.72;;;-0.90;99.90;;;;;;5105006;27;20673;-58
2022/01/08 03:15:20;;;;;;;7.35;6.75;;;-0.90;99.90;;;;;;5135301;27;21241;-58
2022/01/08 03:17:59;;;;;;;8.80;8.20;;;-0.90;99.90;;;;;;5136299;27;20680;-58
2022/01/08 03:20:46;;;;;;;8.85;8.15;;;-0.90;99.90;;;;;;5139955;27;20971;-58
2022/01/08 03:23:25;;;;;;;7.60;6.95;;;-0.90;99.90;;;;;;5081009;27;20559;-57
2022/01/08 03:26:06;;;;;;;6.05;5.57;;;-0.80;99.90;;;;;;5141613;27;20592;-58
2022/01/08 03:28:46;;;;;;;5.18;4.78;;;-0.70;99.90;;;;;;5142826;27;21200;-57
2022/01/08 03:31:27;;;;;;;5.95;5.55;;;-0.60;99.90;;;;;;5130298;27;20664;-58
2022/01/08 03:34:07;;;;;;;5.43;5.05;;;-0.50;99.90;;;;;;5104828;27;20666;-55
2022/01/08 03:36:46;;;;;;;5.25;4.95;;;-0.50;99.90;;;;;;5105164;27;21140;-58
2022/01/08 03:39:26;;;;;;;4.40;4.10;;;-0.50;99.90;;;;;;5084245;28;21217;-58
2022/01/08 03:42:06;;;;;;;5.25;4.85;;;-0.50;99.90;;;;;;5125565;27;21017;-58
2022/01/08 03:44:45;;;;;;;5.70;5.30;;;-0.50;99.90;;;;;;5103759;27;20673;-58
2022/01/08 03:47:42;;;;;;;5.22;4.93;;;-0.50;99.90;;;;;;5104972;27;20555;-58
2022/01/08 03:50:21;;;;;;;5.30;4.97;;;-0.50;99.90;;;;;;5145998;27;20677;-57
2022/01/08 03:53:02;;;;;;;5.22;4.93;;;-0.40;99.90;;;;;;5125094;27;20963;-58
2022/01/08 03:55:41;;;;;;;5.65;5.30;;;-0.30;99.90;;;;;;5145259;27;20564;-58
2022/01/08 03:58:21;;;;;;;6.28;5.88;;;-0.30;99.90;;;;;;5104534;27;21074;-58
2022/01/08 04:01:01;;;;;;;5.22;4.93;;;-0.30;99.90;;;;;;5145997;27;20531;-58
2022/01/08 04:03:40;;;;;;;5.57;5.22;;;-0.30;99.90;;;;;;5105578;27;20904;-58
2022/01/08 04:06:20;;;;;;;5.10;4.80;;;-0.40;99.90;;;;;;5104318;27;20687;-57
2022/01/08 04:09:00;;;;;;;5.88;5.53;;;-0.50;99.90;;;;;;5104307;27;21030;-57
2022/01/08 04:11:40;;;;;;;5.47;5.07;;;-0.50;99.90;;;;;;5084475;27;20652;-58
2022/01/08 04:14:20;;;;;;;5.43;5.07;;;-0.60;99.90;;;;;;5083837;28;20680;-57
2022/01/08 04:16:59;;;;;;;4.68;4.38;;;-0.70;99.90;;;;;;5104938;27;20618;-57
2022/01/08 04:19:39;;;;;;;5.60;5.25;;;-0.80;99.90;;;;;;5125783;27;20540;-58
2022/01/08 04:22:19;;;;;;;5.18;4.85;;;-0.80;99.90;;;;;;5105147;27;21038;-58
2022/01/08 04:24:59;;;;;;;6.43;5.82;;;-0.60;99.90;;;;;;5103998;27;20669;-58
2022/01/08 04:27:39;;;;;;;7.60;7.07;;;-0.60;99.90;;;;;;5104724;27;20545;-57
2022/01/08 04:30:19;;;;;;;5.80;5.40;;;-0.40;99.90;;;;;;5084089;27;20564;-57
2022/01/08 04:32:58;;;;;;;6.00;5.50;;;-0.40;99.90;;;;;;5146263;27;20668;-57
2022/01/08 04:35:39;;;;;;;4.20;3.92;;;-0.40;99.90;;;;;;5145550;27;21047;-58
2022/01/08 04:38:18;;;;;;;5.00;4.70;;;-0.40;99.90;;;;;;5145873;27;20587;-58
2022/01/08 04:40:58;;;;;;;5.65;5.30;;;-0.40;99.90;;;;;;5145840;27;20588;-57
2022/01/08 04:43:42;;;;;;;5.97;5.57;;;-0.50;99.90;;;;;;5084263;27;20561;-57
2022/01/08 04:46:22;;;;;;;4.97;4.57;;;-0.50;99.90;;;;;;5084141;28;20679;-57
2022/01/08 04:49:02;;;;;;;4.82;4.53;;;-0.50;99.90;;;;;;5125427;27;21208;-58
2022/01/08 04:51:42;;;;;;;4.85;4.55;;;-0.50;99.90;;;;;;5084908;28;20668;-57
2022/01/08 04:54:22;;;;;;;4.63;4.32;;;-0.60;99.90;;;;;;5083796;27;20556;-58
2022/01/08 04:57:02;;;;;;;4.28;4.05;;;-0.60;99.90;;;;;;5083567;28;20664;-58
2022/01/08 04:59:42;;;;;;;4.55;4.22;;;-0.60;99.90;;;;;;5084090;28;20699;-58
2022/01/08 05:02:21;;;;;;;4.18;3.88;;;-0.50;99.90;;;;;;5146131;27;21184;-57
2022/01/08 05:05:01;;;;;;;4.53;4.22;;;-0.50;99.90;;;;;;5083659;28;20672;-58
2022/01/08 05:07:41;;;;;;;4.38;3.97;;;-0.50;99.90;;;;;;5143863;27;20612;-58
2022/01/08 05:10:21;;;;;;;4.10;3.80;;;-0.50;99.90;;;;;;5102934;27;20681;-58
2022/01/08 05:13:04;;;;;;;4.03;3.78;;;-0.40;99.90;;;;;;5084884;28;20946;-58
2022/01/08 05:15:44;;;;;;;4.38;4.07;;;-0.30;99.90;;;;;;5124829;27;20648;-58
2022/01/08 05:18:25;;;;;;;4.05;3.78;;;-0.20;99.90;;;;;;5104735;27;20564;-57
2022/01/08 05:21:15;;;;;;;4.15;3.90;;;-0.10;99.90;;;;;;5105213;27;20658;-58
2022/01/08 05:23:55;;;;;;;3.70;3.40;;;0.00;99.90;;;;;;5084726;27;20574;-57
2022/01/08 05:26:36;;;;;;;4.50;4.20;;;0.10;99.90;;;;;;5104706;27;20538;-58
2022/01/08 05:29:16;;;;;;;3.70;3.40;;;0.10;99.90;;;;;;5084134;27;20551;-57
2022/01/08 05:31:55;;;;;;;4.72;4.43;;;0.10;99.90;;;;;;5084750;27;20560;-57
2022/01/08 05:34:35;;;;;;;5.28;4.80;;;0.20;99.90;;;;;;5104388;27;21062;-57
2022/01/08 05:37:16;;;;;;;4.80;4.50;;;0.20;99.90;;;;;;5105051;27;20670;-59
2022/01/08 05:39:55;;;;;;;4.20;3.90;;;0.10;99.90;;;;;;5146164;27;20550;-57
2022/01/08 05:42:35;;;;;;;4.55;4.25;;;0.10;99.90;;;;;;5146056;27;20534;-57
2022/01/08 05:45:15;;;;;;;6.63;6.13;;;0.10;99.90;;;;;;5083767;28;20688;-57
2022/01/08 05:47:54;;;;;;;4.30;4.07;;;0.10;99.90;;;;;;5145536;27;20658;-58
2022/01/08 05:50:34;;;;;;;3.97;3.75;;;0.20;99.90;;;;;;5124579;27;20688;-57
2022/01/08 05:53:14;;;;;;;3.80;3.60;;;0.20;99.90;;;;;;5151379;27;20550;-58
2022/01/08 05:55:54;;;;;;;6.22;5.82;;;0.30;99.90;;;;;;5083910;28;20668;-58
2022/01/08 05:58:34;;;;;;;6.95;6.45;;;0.30;99.90;;;;;;5125022;27;21441;-58
2022/01/08 06:01:14;;;;;;;4.47;4.18;;;0.40;99.90;;;;;;5084518;28;20664;-57
2022/01/08 06:03:53;;;;;;;4.13;3.92;;;0.40;99.90;;;;;;5084408;27;20536;-57
2022/01/08 06:06:35;;;;;;;4.18;3.88;;;0.30;99.90;;;;;;5124729;27;20544;-58
2022/01/08 06:09:15;;;;;;;5.15;4.75;;;0.30;99.90;;;;;;5104238;27;21206;-57
2022/01/08 06:11:54;;;;;;;5.95;5.53;;;0.30;99.90;;;;;;5146424;27;20657;-57
2022/01/08 06:14:34;;;;;;;10.15;9.27;;;0.30;99.90;;;;;;5083513;27;20557;-58
2022/01/08 06:17:14;;;;;;;8.05;7.35;;;0.30;99.90;;;;;;5146249;27;20677;-57
2022/01/08 06:19:54;;;;;;;4.82;4.53;;;0.20;99.90;;;;;;5146086;27;20708;-57
2022/01/08 06:22:34;;;;;;;4.97;4.68;;;0.20;99.90;;;;;;5105407;27;21186;-57
2022/01/08 06:25:14;;;;;;;5.53;5.13;;;0.20;99.90;;;;;;5084021;28;20597;-58
2022/01/08 06:27:54;;;;;;;6.63;6.13;;;0.10;99.90;;;;;;5105175;27;20700;-57
2022/01/08 06:30:33;;;;;;;6.65;6.25;;;0.10;99.90;;;;;;5084499;28;20547;-57
2022/01/08 06:33:13;;;;;;;4.32;4.03;;;0.10;99.90;;;;;;5104934;27;20542;-57
2022/01/08 06:35:53;;;;;;;4.65;4.30;;;0.10;99.90;;;;;;5142075;27;21069;-57
2022/01/08 06:38:33;;;;;;;4.20;3.90;;;0.10;99.90;;;;;;5136090;27;20558;-58
2022/01/08 06:41:13;;;;;;;4.88;4.57;;;0.10;99.90;;;;;;5142058;27;20669;-57
2022/01/08 06:43:52;;;;;;;3.92;3.63;;;0.10;99.90;;;;;;5093096;27;20564;-57
2022/01/08 06:46:33;;;;;;;4.47;4.18;;;0.10;99.90;;;;;;5117323;27;21244;-57
2022/01/08 06:49:13;;;;;;;4.38;4.07;;;0.20;99.90;;;;;;5125019;27;21215;-57
2022/01/08 06:51:52;;;;;;;3.60;3.30;;;0.20;99.90;;;;;;5084935;28;20679;-58
2022/01/08 06:54:32;;;;;;;4.88;4.40;;;0.30;99.90;;;;;;5104248;27;20533;-57
2022/01/08 06:57:11;;;;;;;6.13;5.72;;;0.30;99.90;;;;;;5145893;27;20603;-57
2022/01/08 06:59:51;;;;;;;4.82;4.53;;;0.30;99.90;;;;;;5125455;27;20953;-57
2022/01/08 07:02:31;;;;;;;5.95;5.45;;;0.30;99.90;;;;;;5125633;27;20543;-57
2022/01/08 07:05:11;;;;;;;5.30;4.85;;;0.30;99.90;;;;;;5083898;27;21080;-58
2022/01/08 07:07:51;;;;;;;5.68;5.28;;;0.30;99.90;;;;;;5125408;27;20544;-58
2022/01/08 07:10:31;;;;;;;4.70;4.40;;;0.30;99.90;;;;;;5104966;27;20561;-57
2022/01/08 07:13:11;;;;;;;5.18;4.88;;;0.30;99.90;;;;;;5124916;27;20955;-57
2022/01/08 07:15:50;;;;;;;4.60;4.30;;;0.30;99.90;;;;;;5103893;27;21022;-57
2022/01/08 07:18:30;;;;;;;5.28;4.88;;;0.30;99.90;;;;;;5109133;27;20605;-58
2022/01/08 07:21:10;;;;;;;5.68;5.28;;;0.30;99.90;;;;;;5084733;27;20552;-57
2022/01/08 07:23:50;;;;;;;5.88;5.03;;;0.30;99.90;;;;;;5104692;27;20693;-58
2022/01/08 07:26:29;;;;;;;5.60;5.20;;;0.30;99.90;;;;;;5145696;27;20968;-58
2022/01/08 07:29:09;;;;;;;6.25;5.75;;;0.30;99.90;;;;;;5074776;28;21034;-58
2022/01/08 07:31:49;;;;;;;4.53;4.13;;;0.30;99.90;;;;;;5104653;27;20677;-57
2022/01/08 07:34:29;;;;;;;4.50;4.20;;;0.30;99.90;;;;;;5083103;27;20539;-57
2022/01/08 07:37:09;;;;;;;4.72;4.43;;;0.40;99.90;;;;;;5145915;27;20657;-57
2022/01/08 07:39:49;;;;;;;4.72;4.32;;;0.40;99.90;;;;;;5083447;28;20575;-57
2022/01/08 07:42:28;;;;;;;3.90;3.70;;;0.40;99.90;;;;;;5084203;28;20543;-57
2022/01/08 07:45:10;;;;;;;3.90;3.60;;;0.40;99.90;;;;;;5144644;27;20599;-57
2022/01/08 07:47:50;;;;;;;3.92;3.70;;;0.40;99.90;;;;;;5104837;27;20906;-57
2022/01/08 07:50:30;;;;;;;3.90;3.60;;;0.50;99.90;;;;;;5125280;27;20875;-58
2022/01/08 07:53:09;;;;;;;3.92;3.65;;;0.50;99.90;;;;;;5158186;27;20692;-57
2022/01/08 07:55:49;;;;;;;3.20;3.00;;;0.50;99.90;;;;;;5079645;27;20555;-58
2022/01/08 07:58:29;;;;;;;3.50;3.20;;;0.50;99.90;;;;;;5083815;28;20684;-57
2022/01/08 08:01:09;;;;;;;3.78;3.58;;;0.50;99.90;;;;;;5075547;28;20682;-58
2022/01/08 08:03:49;;;;;;;4.95;4.65;;;0.50;99.90;;;;;;5083608;28;21026;-58
2022/01/08 08:06:29;;;;;;;3.72;3.50;;;0.50;99.90;;;;;;5104564;27;20570;-57
2022/01/08 08:09:08;;;;;;;3.85;3.55;;;0.50;99.90;;;;;;5104623;27;20549;-58
2022/01/08 08:11:48;;;;;;;3.90;3.70;;;0.50;99.90;;;;;;5105154;27;20836;-58
2022/01/08 08:14:28;;;;;;;3.72;3.45;;;0.50;99.90;;;;;;5103964;27;20952;-58
2022/01/08 08:17:08;;;;;;;4.15;3.85;;;0.50;99.90;;;;;;5146808;27;21194;-57
2022/01/08 08:19:48;;;;;;;3.95;3.75;;;0.60;99.90;;;;;;5085218;27;21068;-58
2022/01/08 08:22:27;;;;;;;3.35;3.15;;;0.60;99.90;;;;;;5085160;27;20563;-58
2022/01/08 08:25:10;;;;;;;2.95;2.75;;;0.60;99.90;;;;;;5084320;27;20566;-57
2022/01/08 08:27:50;;;;;;;3.95;3.65;;;0.70;99.90;;;;;;5105231;27;20669;-57
2022/01/08 08:30:29;;;;;;;3.10;2.90;;;0.70;99.90;;;;;;5146158;27;20665;-57
2022/01/08 08:33:08;;;;;;;3.20;3.00;;;0.80;99.90;;;;;;5126049;27;20540;-57
2022/01/08 08:35:48;;;;;;;3.20;2.95;;;0.80;99.90;;;;;;5084313;27;20543;-57
2022/01/08 08:38:29;;;;;;;3.70;3.40;;;1.00;99.90;;;;;;5104899;27;21090;-57
2022/01/08 08:41:08;;;;;;;4.32;3.92;;;1.00;99.90;;;;;;5125247;27;20663;-57
2022/01/08 08:43:48;;;;;;;2.90;2.70;;;1.20;99.90;;;;;;5084115;28;20539;-57
2022/01/08 08:46:27;;;;;;;3.78;3.47;;;1.30;99.90;;;;;;5145292;27;21007;-57
2022/01/08 08:49:07;;;;;;;2.83;2.63;;;1.40;99.90;;;;;;5124814;27;20962;-57
2022/01/08 08:51:47;;;;;;;2.85;2.67;;;1.50;99.90;;;;;;5151713;27;20598;-57
2022/01/08 08:54:27;;;;;;;2.88;2.67;;;1.50;99.90;;;;;;5084033;28;20679;-57
2022/01/08 08:57:07;;;;;;;2.63;2.42;;;1.50;99.90;;;;;;5084608;27;20566;-57
2022/01/08 08:59:47;;;;;;;3.00;2.80;;;1.40;99.90;;;;;;5084040;27;20565;-57
2022/01/08 09:02:26;;;;;;;3.25;3.05;;;1.30;99.90;;;;;;5084803;27;20543;-57
2022/01/08 09:05:07;;;;;;;2.80;2.60;;;1.40;99.90;;;;;;5104035;27;21062;-57
2022/01/08 09:07:47;;;;;;;2.63;2.53;;;1.40;99.90;;;;;;5084160;27;20910;-57
2022/01/08 09:10:26;;;;;;;2.70;2.60;;;1.50;99.90;;;;;;5146610;27;20677;-57
2022/01/08 09:13:06;;;;;;;2.60;2.40;;;1.70;99.90;;;;;;5125713;27;20670;-57
2022/01/08 09:15:46;;;;;;;2.70;2.50;;;1.80;99.90;;;;;;5103827;27;20550;-58
2022/01/08 09:18:25;;;;;;;2.53;2.42;;;1.90;99.90;;;;;;5084159;28;20754;-57
2022/01/08 09:21:06;;;;;;;2.08;1.98;;;2.10;99.90;;;;;;5084690;28;20663;-57
2022/01/08 09:23:45;;;;;;;3.08;2.88;;;2.20;99.90;;;;;;5096080;27;20569;-57
2022/01/08 09:26:25;;;;;;;2.95;2.75;;;2.30;99.90;;;;;;5141235;27;20876;-57
2022/01/08 09:29:05;;;;;;;2.13;2.00;;;2.30;99.90;;;;;;5138954;27;20684;-55
2022/01/08 09:31:45;;;;;;;1.98;1.88;;;2.30;99.90;;;;;;5084568;28;20699;-56
2022/01/08 09:34:24;;;;;;;1.98;1.88;;;2.30;99.90;;;;;;5137706;27;20554;-57
2022/01/08 09:37:05;;;;;;;1.85;1.75;;;2.20;99.90;;;;;;5084213;27;20668;-57
2022/01/08 09:39:44;;;;;;;2.05;1.95;;;2.10;99.90;;;;;;5084271;27;20547;-57
2022/01/08 09:42:24;;;;;;;2.20;2.10;;;2.10;99.90;;;;;;5142660;27;20540;-57
2022/01/08 09:45:05;;;;;;;2.88;2.67;;;2.20;99.90;;;;;;5124644;27;20971;-57
2022/01/08 09:47:45;;;;;;;2.47;2.33;;;2.30;99.90;;;;;;5145973;27;20534;-57
2022/01/08 09:50:26;;;;;;;2.45;2.35;;;2.30;99.90;;;;;;5125522;27;20685;-57
2022/01/08 09:53:05;;;;;;;4.13;3.35;;;2.60;99.90;;;;;;5084325;28;20548;-57
2022/01/08 09:55:45;;;;;;;2.75;2.55;;;2.70;99.90;;;;;;5082415;27;20591;-57
2022/01/08 09:58:24;;;;;;;2.67;2.38;;;3.00;99.90;;;;;;5146413;27;20668;-56
2022/01/08 10:01:22;;;;;;;2.63;2.50;;;3.00;99.90;;;;;;5105788;27;20658;-57
2022/01/08 10:04:05;;;;;;;4.55;3.78;;;3.00;99.90;;;;;;5085943;28;20652;-57
2022/01/08 10:06:45;;;;;;;2.60;2.40;;;3.00;99.90;;;;;;5138260;27;20562;-57
2022/01/08 10:09:25;;;;;;;2.40;2.20;;;2.90;99.90;;;;;;5071086;27;20565;-57
2022/01/08 10:12:05;;;;;;;2.30;2.10;;;2.80;99.90;;;;;;5144906;27;20543;-57
2022/01/08 10:17:47;;;;;;;2.08;1.98;;;2.90;99.90;;;;;;5075419;27;21013;-57
2022/01/08 10:20:33;;;;;;;2.03;1.92;;;2.80;99.90;;;;;;5076990;28;20695;-57
2022/01/08 10:23:18;;;;;;;2.10;2.00;;;2.80;99.90;;;;;;5084723;27;20683;-57
2022/01/08 10:26:01;;;;;;;1.77;1.67;;;2.90;99.90;;;;;;5152857;27;20566;-56
2022/01/08 10:28:43;;;;;;;1.88;1.77;;;3.10;99.90;;;;;;5085734;28;20707;-56
2022/01/08 10:31:25;;;;;;;2.20;2.00;;;3.40;99.90;;;;;;5085437;28;20951;-56
2022/01/08 10:34:09;;;;;;;2.00;1.90;;;3.50;99.90;;;;;;5147691;27;20669;-58
2022/01/08 10:36:58;;;;;;;2.20;2.10;;;3.50;99.90;;;;;;5085746;28;20667;-56
2022/01/08 10:39:38;;;;;;;2.10;2.00;;;3.60;99.90;;;;;;5146918;27;20682;-57
2022/01/08 10:42:19;;;;;;;2.00;1.90;;;3.50;99.90;;;;;;5147177;27;20681;-57
2022/01/08 10:44:58;;;;;;;1.55;1.48;;;3.50;99.90;;;;;;5147258;27;20659;-56
2022/01/08 10:47:38;;;;;;;1.98;1.88;;;3.40;99.90;;;;;;5106046;27;20689;-57
2022/01/08 10:50:23;;;;;;;1.88;1.77;;;3.30;99.90;;;;;;5086140;28;21052;-57
2022/01/08 10:53:03;;;;;;;1.90;1.80;;;3.10;99.90;;;;;;5082906;27;20984;-57
2022/01/08 10:55:43;;;;;;;1.90;1.80;;;3.00;99.90;;;;;;5073301;27;20567;-56
2022/01/08 10:58:41;;;;;;;1.58;1.50;;;2.90;99.90;;;;;;5137688;27;20678;-57
2022/01/08 11:01:41;;;;;;;2.72;2.53;;;2.80;99.90;;;;;;5084465;27;20555;-57
2022/01/08 11:04:34;;;;;;;1.70;1.60;;;2.70;99.90;;;;;;5085414;28;21030;-57
2022/01/08 11:07:15;;;;;;;2.13;2.00;;;2.70;99.90;;;;;;5085820;28;20660;-57
2022/01/08 11:09:56;;;;;;;2.40;1.88;;;2.80;99.90;;;;;;5067531;28;20741;-57
2022/01/08 11:12:40;;;;;;;1.98;1.80;;;2.90;99.90;;;;;;5143216;27;20679;-57
2022/01/08 11:15:35;;;;;;;2.22;2.00;;;2.90;99.90;;;;;;5106040;27;21082;-57
2022/01/08 11:18:18;;;;;;;1.40;1.30;;;2.90;99.90;;;;;;5131126;27;20544;-57
2022/01/08 11:20:59;;;;;;;1.50;1.20;;;2.90;99.90;;;;;;5147203;27;20531;-56
2022/01/08 11:23:40;;;;;;;0.80;0.80;;;2.90;99.90;;;;;;5086138;28;20671;-56
2022/01/08 11:26:19;;;;;;;1.00;1.00;;;3.00;99.90;;;;;;5147468;27;21071;-57
2022/01/08 11:29:02;;;;;;;1.45;1.05;;;3.00;99.90;;;;;;5081733;28;20551;-57
2022/01/08 11:31:43;;;;;;;0.95;0.85;;;3.00;99.90;;;;;;5086150;27;20879;-57
2022/01/08 11:34:23;;;;;;;3.67;0.95;;;2.90;99.90;;;;;;5085462;28;20659;-57
2022/01/08 11:37:03;;;;;;;0.80;0.80;;;2.90;99.90;;;;;;5085938;27;20527;-57
2022/01/08 11:39:45;;;;;;;1.52;0.70;;;3.00;99.90;;;;;;5121006;27;20615;-57
2022/01/08 11:42:24;;;;;;;0.75;0.75;;;3.00;99.90;;;;;;5118435;27;20755;-57
2022/01/08 11:45:08;;;;;;;0.60;0.60;;;3.10;99.90;;;;;;5085188;27;20535;-57
2022/01/08 11:47:51;;;;;;;0.45;0.45;;;3.10;99.90;;;;;;5084662;27;20554;-57
2022/01/08 11:50:32;;;;;;;0.45;0.45;;;2.90;99.90;;;;;;5106015;27;20553;-57
2022/01/08 11:53:17;;;;;;;0.98;0.90;;;3.00;99.90;;;;;;5090235;28;20685;-57
2022/01/08 11:55:58;;;;;;;0.70;0.70;;;3.10;99.90;;;;;;5085082;28;20667;-57
2022/01/08 11:58:38;;;;;;;0.73;0.70;;;3.00;99.90;;;;;;5116593;27;20549;-57
2022/01/08 12:01:17;;;;;;;1.48;0.75;;;3.00;99.90;;;;;;5085150;28;20548;-57
2022/01/08 12:03:57;;;;;;;0.52;0.50;;;3.00;99.90;;;;;;5082109;28;20547;-57
2022/01/08 12:06:39;;;;;;;0.40;0.40;;;2.90;99.90;;;;;;5085607;27;20544;-57
2022/01/08 12:09:21;;;;;;;0.40;0.40;;;2.90;99.90;;;;;;5095633;27;20683;-57
2022/01/08 12:12:04;;;;;;;0.55;0.55;;;2.90;99.90;;;;;;5105728;27;20673;-56
2022/01/08 12:14:49;;;;;;;0.43;0.43;;;2.90;99.90;;;;;;5084694;28;20679;-57
2022/01/08 12:17:29;;;;;;;1.00;0.50;;;2.90;99.90;;;;;;5085133;28;20663;-57
2022/01/08 12:20:10;;;;;;;0.40;0.40;;;2.90;99.90;;;;;;5083622;27;20764;-57
2022/01/08 12:22:50;;;;;;;0.50;0.50;;;2.80;99.90;;;;;;5152609;27;20542;-58
2022/01/08 12:25:42;;;;;;;1.58;0.40;;;2.80;99.90;;;;;;5085330;27;20672;-58
2022/01/08 12:28:41;;;;;;;0.30;0.30;;;2.70;99.90;;;;;;5086099;28;20547;-57
2022/01/08 12:31:25;;;;;;;0.55;0.55;;;2.60;99.90;;;;;;5086784;27;20556;-57
2022/01/08 12:34:23;;;;;;;0.55;0.55;;;2.70;99.90;;;;;;5086749;27;21076;-57
2022/01/08 12:37:04;;;;;;;0.30;0.30;;;2.70;99.90;;;;;;5127696;27;20548;-58
2022/01/08 12:39:53;;;;;;;1.08;0.50;;;2.60;99.90;;;;;;5072330;28;20694;-57
2022/01/08 12:42:40;;;;;;;0.47;0.20;;;2.70;99.90;;;;;;5086502;27;20543;-58
2022/01/08 12:45:32;;;;;;;0.28;0.20;;;2.80;99.90;;;;;;5085966;28;20664;-57
2022/01/08 12:48:13;;;;;;;0.52;0.35;;;2.90;99.90;;;;;;5086056;27;20551;-57
2022/01/08 12:50:56;;;;;;;0.40;0.40;;;2.90;99.90;;;;;;5086799;28;20656;-57
2022/01/08 12:53:36;;;;;;;0.30;0.30;;;2.90;99.90;;;;;;5086186;28;21217;-58
2022/01/08 12:56:17;;;;;;;0.95;0.45;;;2.80;99.90;;;;;;5086036;27;21153;-57
2022/01/08 12:58:56;;;;;;;0.20;0.20;;;2.90;99.90;;;;;;5126866;27;20669;-57
2022/01/08 13:01:39;;;;;;;0.35;0.30;;;3.10;99.90;;;;;;5127085;27;20663;-58
2022/01/08 13:04:22;;;;;;;0.40;0.40;;;3.20;99.90;;;;;;5147255;27;20669;-57
2022/01/08 13:07:02;;;;;;;0.35;0.35;;;3.30;99.90;;;;;;5085943;28;20667;-57
2022/01/08 13:09:43;;;;;;;0.45;0.40;;;3.20;99.90;;;;;;5147617;27;20669;-57
2022/01/08 13:12:24;;;;;;;0.40;0.40;;;3.10;99.90;;;;;;5086239;28;20679;-57
2022/01/08 13:15:05;;;;;;;0.40;0.35;;;3.00;99.90;;;;;;5085822;28;20691;-57
2022/01/08 13:17:45;;;;;;;1.35;0.65;;;2.80;99.90;;;;;;5086054;27;21228;-57
2022/01/08 13:20:29;;;;;;;2.55;0.52;;;2.60;99.90;;;;;;5086272;27;21076;-57
2022/01/08 13:23:11;;;;;;;0.95;0.50;;;2.50;99.90;;;;;;5078503;27;20572;-57
2022/01/08 13:25:54;;;;;;;0.50;0.50;;;2.50;99.90;;;;;;5083975;27;21034;-57
2022/01/08 13:28:34;;;;;;;0.40;0.40;;;2.70;99.90;;;;;;5085787;27;20660;-57
2022/01/08 13:31:13;;;;;;;0.95;0.50;;;2.60;99.90;;;;;;5085330;27;21091;-57
2022/01/08 13:33:56;;;;;;;0.70;0.70;;;2.50;99.90;;;;;;5085986;27;20573;-58
2022/01/08 13:36:36;;;;;;;1.02;0.60;;;2.30;99.90;;;;;;5106049;27;20553;-58
2022/01/08 13:39:26;;;;;;;0.75;0.70;;;2.10;99.90;;;;;;5085814;27;20551;-57
2022/01/08 13:42:21;;;;;;;0.85;0.77;;;2.00;99.90;;;;;;5086258;28;21192;-57
2022/01/08 13:45:03;;;;;;;0.93;0.80;;;2.10;99.90;;;;;;5085689;27;20547;-58
2022/01/08 13:47:45;;;;;;;0.75;0.75;;;2.10;99.90;;;;;;5147341;27;20662;-57
2022/01/08 13:50:29;;;;;;;0.98;0.80;;;2.10;99.90;;;;;;5086341;27;20695;-58
2022/01/08 13:53:11;;;;;;;0.95;0.77;;;2.00;99.90;;;;;;5147176;27;20546;-58
2022/01/08 13:55:50;;;;;;;1.13;0.65;;;1.90;99.90;;;;;;5085722;27;21006;-58
2022/01/08 13:58:31;;;;;;;1.52;0.70;;;1.90;99.90;;;;;;5085574;28;20562;-58
2022/01/08 14:01:11;;;;;;;1.00;0.80;;;1.80;99.90;;;;;;5084865;28;20683;-58
2022/01/08 14:03:52;;;;;;;1.73;1.63;;;1.80;99.90;;;;;;5084701;27;20565;-58
2022/01/08 14:06:31;;;;;;;1.15;0.90;;;1.80;99.90;;;;;;5084942;27;20970;-58
2022/01/08 14:09:18;;;;;;;1.35;1.25;;;1.70;99.90;;;;;;5085184;27;20551;-57
2022/01/08 14:12:15;;;;;;;1.98;1.10;;;1.60;99.90;;;;;;5085040;28;21196;-58
2022/01/08 14:14:55;;;;;;;1.25;1.00;;;1.60;99.90;;;;;;5085284;27;20539;-58
2022/01/08 14:17:35;;;;;;;3.10;1.10;;;1.50;99.90;;;;;;5105781;27;20654;-58
2022/01/08 14:20:14;;;;;;;1.70;1.52;;;1.50;99.90;;;;;;5126186;27;20575;-58
2022/01/08 14:22:54;;;;;;;2.03;1.08;;;1.50;99.90;;;;;;5106258;27;20545;-59